createdAt,value
2022-08-19T00:00:48.769Z,100027.47
2022-08-19T00:03:30.665Z,100024.94
2022-08-19T00:06:12.971Z,100020.80
2022-08-19T00:09:01.259Z,100013.75
2022-08-19T00:11:44.953Z,100011.03
2022-08-19T00:14:28.182Z,100011.83
2022-08-19T00:17:10.998Z,100011.49
2022-08-19T00:19:52.895Z,100007.92
2022-08-19T00:22:35.813Z,100010.98
2022-08-19T00:25:18.069Z,100009.77
2022-08-19T00:28:00.497Z,100004.65
2022-08-19T00:30:42.423Z,100001.17
2022-08-19T00:33:24.319Z,100003.38
2022-08-19T00:36:09.112Z,100006.23
2022-08-19T00:38:52.923Z,100008.27
2022-08-19T00:41:35.277Z,100011.83
2022-08-19T00:44:27.115Z,100011.48
2022-08-19T00:47:11.004Z,100009.63
2022-08-19T00:49:59.480Z,100005.58
2022-08-19T00:52:46.624Z,100001.46
2022-08-19T00:55:30.102Z,99992.39
2022-08-19T00:58:16.607Z,99989.69
2022-08-19T01:00:58.762Z,99984.86
2022-08-19T01:03:57.768Z,99987.83
2022-08-19T01:06:42.501Z,99994.52
2022-08-19T01:09:27.331Z,99993.62
2022-08-19T01:12:10.046Z,99992.45
2022-08-19T01:14:54.399Z,99997.06
2022-08-19T01:17:39.370Z,99993.33
2022-08-19T01:20:23.975Z,99991.98
2022-08-19T01:23:06.073Z,99988.52
2022-08-19T01:25:51.183Z,99986.64
2022-08-19T01:28:39.690Z,99981.40
2022-08-19T01:31:32.601Z,99980.86
2022-08-19T01:34:15.011Z,99982.09
2022-08-19T01:36:56.907Z,99978.79
2022-08-19T01:39:41.495Z,99978.35
2022-08-19T01:42:30.536Z,99974.08
2022-08-19T01:45:12.834Z,99964.83
2022-08-19T01:48:01.995Z,99957.47
2022-08-19T01:50:44.920Z,99955.46
2022-08-19T01:53:33.618Z,99952.37
2022-08-19T01:56:18.440Z,99949.94
2022-08-19T01:59:09.570Z,99945.92
2022-08-19T02:01:51.593Z,99939.60
2022-08-19T02:04:35.012Z,99940.30
2022-08-19T02:07:20.871Z,99940.09
2022-08-19T02:10:09.041Z,99936.94
2022-08-19T02:12:54.704Z,99927.66
2022-08-19T02:15:36.798Z,99927.13
2022-08-19T02:18:19.102Z,99923.71
2022-08-19T02:21:00.999Z,99917.26
2022-08-19T02:23:44.021Z,99914.18
2022-08-19T02:26:27.777Z,99914.68
2022-08-19T02:29:09.760Z,99915.63
2022-08-19T02:31:52.496Z,99904.93
2022-08-19T02:34:35.188Z,99902.80
2022-08-19T02:37:36.028Z,99900.16
2022-08-19T02:40:18.958Z,99898.29
2022-08-19T02:43:02.114Z,99897.95
2022-08-19T02:45:44.217Z,99899.95
2022-08-19T02:48:27.012Z,99898.97
2022-08-19T02:51:09.192Z,99901.13
2022-08-19T02:53:51.498Z,99900.77
2022-08-19T02:56:36.525Z,99903.91
2022-08-19T02:59:18.567Z,99900.39
2022-08-19T03:02:05.070Z,99898.67
2022-08-19T03:04:47.428Z,99892.03
2022-08-19T03:07:29.374Z,99888.95
2022-08-19T03:10:11.477Z,99890.73
2022-08-19T03:12:53.599Z,99889.50
2022-08-19T03:15:35.881Z,99893.05
2022-08-19T03:18:18.455Z,99887.55
2022-08-19T03:21:00.695Z,99880.25
2022-08-19T03:23:42.592Z,99872.04
2022-08-19T03:26:24.737Z,99874.19
2022-08-19T03:29:07.252Z,99875.46
2022-08-19T03:31:53.195Z,99877.42
2022-08-19T03:34:38.164Z,99887.73
2022-08-19T03:37:19.955Z,99891.88
2022-08-19T03:40:04.990Z,99884.83
2022-08-19T03:42:48.668Z,99883.57
2022-08-19T03:45:31.428Z,99877.70
2022-08-19T03:48:13.318Z,99877.41
2022-08-19T03:50:55.168Z,99882.00
2022-08-19T03:53:37.064Z,99879.70
2022-08-19T03:56:19.369Z,99875.99
2022-08-19T03:59:01.369Z,99879.58
2022-08-19T04:01:44.137Z,99884.13
2022-08-19T04:04:29.228Z,99889.08
2022-08-19T04:07:14.695Z,99886.29
2022-08-19T04:09:56.630Z,99885.09
2022-08-19T04:12:38.732Z,99893.48
2022-08-19T04:15:22.060Z,99904.02
2022-08-19T04:18:04.981Z,99909.20
2022-08-19T04:20:48.937Z,99907.91
2022-08-19T04:23:31.331Z,99912.55
2022-08-19T04:26:19.785Z,99907.68
2022-08-19T04:29:10.452Z,99898.94
2022-08-19T04:31:56.703Z,99899.13
2022-08-19T04:35:03.262Z,99900.09
2022-08-19T04:37:40.950Z,99907.92
2022-08-19T04:40:41.382Z,99920.39
2022-08-19T04:43:23.222Z,99924.66
2022-08-19T04:46:11.727Z,99924.54
2022-08-19T04:49:13.727Z,99923.75
2022-08-19T04:51:56.613Z,99921.73
2022-08-19T04:54:39.536Z,99919.44
2022-08-19T04:57:22.861Z,99914.44
2022-08-19T05:00:05.421Z,99907.66
2022-08-19T05:02:47.425Z,99912.91
2022-08-19T05:05:29.368Z,99921.80
2022-08-19T05:08:12.493Z,99914.58
2022-08-19T05:10:58.514Z,99899.98
2022-08-19T05:13:40.791Z,99897.52
2022-08-19T05:16:25.143Z,99890.27
2022-08-19T05:19:26.290Z,99890.25
2022-08-19T05:22:27.031Z,99897.28
2022-08-19T05:25:13.905Z,99893.98
2022-08-19T05:27:56.144Z,99889.02
2022-08-19T05:30:47.303Z,99886.73
2022-08-19T05:33:29.872Z,99887.61
2022-08-19T05:36:12.382Z,99890.71
2022-08-19T05:38:55.100Z,99887.27
2022-08-19T05:41:42.008Z,99881.98
2022-08-19T05:44:25.999Z,99886.48
2022-08-19T05:47:09.690Z,99885.84
2022-08-19T05:49:52.115Z,99878.02
2022-08-19T05:52:34.246Z,99879.55
2022-08-19T05:55:16.606Z,99867.65
2022-08-19T05:57:59.331Z,99868.09
2022-08-19T06:00:44.327Z,99866.48
2022-08-19T06:03:26.288Z,99871.01
2022-08-19T06:06:10.377Z,99874.15
2022-08-19T06:08:52.331Z,99870.77
2022-08-19T06:11:38.426Z,99870.61
2022-08-19T06:14:27.726Z,99874.36
2022-08-19T06:17:10.103Z,99877.90
2022-08-19T06:19:51.998Z,99873.85
2022-08-19T06:22:50.381Z,99875.58
2022-08-19T06:25:32.378Z,99873.77
2022-08-19T06:28:15.423Z,99864.21
2022-08-19T06:30:57.810Z,99858.51
2022-08-19T06:33:40.319Z,99862.33
2022-08-19T06:36:32.865Z,99860.52
2022-08-19T06:39:19.998Z,99861.67
2022-08-19T06:42:07.407Z,99863.06
2022-08-19T06:44:53.281Z,99860.16
2022-08-19T06:47:35.809Z,99858.77
2022-08-19T06:50:17.730Z,99854.84
2022-08-19T06:53:01.527Z,99862.05
2022-08-19T06:55:47.127Z,99865.11
2022-08-19T06:58:33.324Z,99868.56
2022-08-19T07:01:15.219Z,99866.67
2022-08-19T07:03:57.731Z,99874.69
2022-08-19T07:06:43.420Z,99881.86
2022-08-19T07:09:26.845Z,99877.38
2022-08-19T07:12:11.619Z,99876.68
2022-08-19T07:14:55.142Z,99873.26
2022-08-19T07:17:39.803Z,99882.27
2022-08-19T07:20:28.407Z,99888.97
2022-08-19T07:23:15.892Z,99895.48
2022-08-19T07:25:58.555Z,99895.94
2022-08-19T07:28:40.802Z,99903.79
2022-08-19T07:31:37.954Z,99907.67
2022-08-19T07:34:20.363Z,99912.33
2022-08-19T07:37:02.257Z,99918.20
2022-08-19T07:39:44.218Z,99918.70
2022-08-19T07:42:26.868Z,99927.84
2022-08-19T07:45:09.325Z,99924.52
2022-08-19T07:47:51.454Z,99921.50
2022-08-19T07:50:33.580Z,99922.90
2022-08-19T07:53:15.418Z,99932.10
2022-08-19T07:56:01.364Z,99936.45
2022-08-19T07:58:45.865Z,99934.61
2022-08-19T08:01:29.198Z,99932.18
2022-08-19T08:04:31.013Z,99931.05
2022-08-19T08:07:31.793Z,99932.65
2022-08-19T08:10:21.194Z,99928.34
2022-08-19T08:13:09.871Z,99934.07
2022-08-19T08:15:52.975Z,99922.20
2022-08-19T08:18:42.594Z,99916.98
2022-08-19T08:21:24.425Z,99914.55
2022-08-19T08:24:06.474Z,99916.69
2022-08-19T08:26:52.207Z,99917.83
2022-08-19T08:29:41.630Z,99916.52
2022-08-19T08:32:24.387Z,99919.44
2022-08-19T08:35:09.728Z,99913.41
2022-08-19T08:37:54.869Z,99908.85
2022-08-19T08:40:50.925Z,99902.38
2022-08-19T08:43:38.277Z,99903.40
2022-08-19T08:46:41.237Z,99903.95
2022-08-19T08:49:38.798Z,99911.01
2022-08-19T08:52:23.868Z,99920.84
2022-08-19T08:55:11.293Z,99923.14
2022-08-19T08:58:15.109Z,99921.02
2022-08-19T09:00:57.767Z,99919.33
2022-08-19T09:03:43.100Z,99916.91
2022-08-19T09:06:40.695Z,99911.55
2022-08-19T09:09:36.478Z,99916.30
2022-08-19T09:12:51.244Z,99911.13
2022-08-19T09:15:45.690Z,99910.12
2022-08-19T09:18:48.780Z,99910.46
2022-08-19T09:21:34.202Z,99913.16
2022-08-19T09:24:16.409Z,99918.27
2022-08-19T09:26:58.306Z,99921.85
2022-08-19T09:29:40.404Z,99924.41
2022-08-19T09:32:26.062Z,99924.50
2022-08-19T09:35:09.622Z,99922.67
2022-08-19T09:37:57.725Z,99926.02
2022-08-19T09:40:41.606Z,99923.05
2022-08-19T09:43:33.359Z,99916.80
2022-08-19T09:46:18.400Z,99916.55
2022-08-19T09:49:06.121Z,99908.00
2022-08-19T09:51:55.547Z,99907.15
2022-08-19T09:54:38.891Z,99901.99
2022-08-19T09:57:20.834Z,99898.31
2022-08-19T10:00:07.648Z,99904.62
2022-08-19T10:02:49.642Z,99902.98
2022-08-19T10:05:50.587Z,99907.24
2022-08-19T10:08:38.419Z,99901.40
2022-08-19T10:11:27.308Z,99901.06
2022-08-19T10:14:11.017Z,99905.27
2022-08-19T10:16:53.223Z,99897.55
2022-08-19T10:19:37.305Z,99895.30
2022-08-19T10:22:20.186Z,99893.66
2022-08-19T10:25:02.013Z,99886.05
2022-08-19T10:27:47.899Z,99875.85
2022-08-19T10:30:33.451Z,99873.83
2022-08-19T10:33:27.086Z,99867.84
2022-08-19T10:36:23.763Z,99865.70
2022-08-19T10:39:09.475Z,99859.64
2022-08-19T10:41:51.279Z,99858.04
2022-08-19T10:44:52.454Z,99856.17
2022-08-19T10:47:37.996Z,99857.02
2022-08-19T10:50:39.224Z,99853.02
2022-08-19T10:53:27.052Z,99858.29
2022-08-19T10:56:29.840Z,99861.20
2022-08-19T10:59:15.319Z,99868.02
2022-08-19T11:02:02.056Z,99871.34
2022-08-19T11:04:44.184Z,99868.84
2022-08-19T11:07:29.198Z,99861.33
2022-08-19T11:10:33.493Z,99856.44
2022-08-19T11:13:15.358Z,99856.44
2022-08-19T11:16:08.941Z,99863.48
2022-08-19T11:18:54.414Z,99863.65
2022-08-19T11:21:42.720Z,99856.18
2022-08-19T11:24:26.966Z,99857.40
2022-08-19T11:27:10.855Z,99859.59
2022-08-19T11:29:54.187Z,99863.36
2022-08-19T11:32:36.138Z,99864.70
2022-08-19T11:35:21.438Z,99866.38
2022-08-19T11:38:07.187Z,99867.84
2022-08-19T11:41:02.502Z,99867.58
2022-08-19T11:43:46.445Z,99868.06
2022-08-19T11:46:30.798Z,99876.88
2022-08-19T11:49:14.356Z,99876.89
2022-08-19T11:51:56.641Z,99876.04
2022-08-19T11:54:38.533Z,99879.27
2022-08-19T11:57:21.043Z,99884.02
2022-08-19T12:00:06.869Z,99879.61
2022-08-19T12:02:48.932Z,99878.98
2022-08-19T12:05:31.237Z,99878.40
2022-08-19T12:08:17.843Z,99882.41
2022-08-19T12:11:01.888Z,99886.52
2022-08-19T12:13:47.473Z,99890.10
2022-08-19T12:16:31.852Z,99887.70
2022-08-19T12:19:21.847Z,99884.56
2022-08-19T12:22:04.729Z,99889.42
2022-08-19T12:24:46.830Z,99895.52
2022-08-19T12:27:40.154Z,99894.86
2022-08-19T12:30:30.897Z,99903.89
2022-08-19T12:33:14.868Z,99896.10
2022-08-19T12:36:02.153Z,99897.80
2022-08-19T12:38:45.380Z,99900.17
2022-08-19T12:41:27.900Z,99898.55
2022-08-19T12:44:09.795Z,99898.50
2022-08-19T12:46:54.148Z,99897.77
2022-08-19T12:49:53.315Z,99896.09
2022-08-19T12:52:38.369Z,99893.70
2022-08-19T12:55:27.338Z,99891.78
2022-08-19T12:58:13.729Z,99893.54
2022-08-19T13:01:03.272Z,99898.50
2022-08-19T13:03:48.019Z,99890.70
2022-08-19T13:06:32.988Z,99897.97
2022-08-19T13:09:15.397Z,99898.75
2022-08-19T13:11:58.109Z,99897.05
2022-08-19T13:14:41.605Z,99891.77
2022-08-19T13:17:24.511Z,99891.13
2022-08-19T13:20:10.315Z,99890.20
2022-08-19T13:22:52.758Z,99890.38
2022-08-19T13:25:34.654Z,99889.98
2022-08-19T13:28:16.653Z,99893.15
2022-08-19T13:31:20.051Z,99890.52
2022-08-19T13:34:02.051Z,99893.85
2022-08-19T13:36:44.472Z,99899.04
2022-08-19T13:39:26.509Z,99896.00
2022-08-19T13:42:09.684Z,99895.45
2022-08-19T13:44:57.255Z,99890.00
2022-08-19T13:47:45.354Z,99899.46
2022-08-19T13:50:32.592Z,99895.40
2022-08-19T13:53:15.433Z,99894.80
2022-08-19T13:55:57.388Z,99893.40
2022-08-19T13:58:40.108Z,99895.02
2022-08-19T14:01:25.144Z,99900.30
2022-08-19T14:04:08.243Z,99902.14
2022-08-19T14:06:50.197Z,99900.61
2022-08-19T14:09:32.193Z,99901.65
2022-08-19T14:12:15.145Z,99903.73
2022-08-19T14:15:11.856Z,99901.52
2022-08-19T14:17:55.084Z,99906.40
2022-08-19T14:20:37.705Z,99910.86
2022-08-19T14:23:20.103Z,99914.77
2022-08-19T14:26:08.888Z,99913.38
2022-08-19T14:28:51.166Z,99918.55
2022-08-19T14:31:33.062Z,99918.11
2022-08-19T14:34:15.102Z,99919.98
2022-08-19T14:36:57.057Z,99917.61
2022-08-19T14:39:39.547Z,99923.98
2022-08-19T14:42:21.567Z,99922.61
2022-08-19T14:45:06.219Z,99923.17
2022-08-19T14:47:48.199Z,99924.55
2022-08-19T14:50:30.272Z,99923.00
2022-08-19T14:53:13.143Z,99927.80
2022-08-19T14:55:55.241Z,99926.02
2022-08-19T14:58:39.087Z,99929.67
2022-08-19T15:01:24.043Z,99929.04
2022-08-19T15:04:06.356Z,99934.00
2022-08-19T15:06:48.329Z,99931.59
2022-08-19T15:09:30.249Z,99933.11
2022-08-19T15:12:12.146Z,99934.38
2022-08-19T15:15:04.486Z,99933.28
2022-08-19T15:17:47.537Z,99930.06
2022-08-19T15:20:30.881Z,99931.75
2022-08-19T15:23:13.147Z,99925.96
2022-08-19T15:25:56.811Z,99926.11
2022-08-19T15:28:38.778Z,99927.90
2022-08-19T15:31:27.987Z,99928.46
2022-08-19T15:34:10.557Z,99920.54
2022-08-19T15:36:53.476Z,99920.90
2022-08-19T15:39:35.922Z,99920.50
2022-08-19T15:42:29.603Z,99914.24
2022-08-19T15:45:14.119Z,99913.33
2022-08-19T15:47:56.323Z,99914.15
2022-08-19T15:50:39.680Z,99910.60
2022-08-19T15:53:21.951Z,99910.98
2022-08-19T15:56:04.564Z,99912.27
2022-08-19T15:59:04.993Z,99914.89
2022-08-19T16:02:05.868Z,99915.33
2022-08-19T16:05:12.408Z,99915.57
2022-08-19T16:07:55.043Z,99918.11
2022-08-19T16:10:39.885Z,99918.46
2022-08-19T16:13:23.216Z,99914.17
2022-08-19T16:16:06.443Z,99911.53
2022-08-19T16:18:53.766Z,99912.77
2022-08-19T16:21:38.322Z,99914.44
2022-08-19T16:24:25.754Z,99918.92
2022-08-19T16:27:07.695Z,99917.11
2022-08-19T16:29:50.258Z,99914.17
2022-08-19T16:32:32.152Z,99912.08
2022-08-19T16:35:14.201Z,99921.96
2022-08-19T16:37:56.383Z,99919.09
2022-08-19T16:40:38.762Z,99923.10
2022-08-19T16:43:22.397Z,99929.96
2022-08-19T16:46:04.293Z,99942.09
2022-08-19T16:48:46.496Z,99950.85
2022-08-19T16:51:28.801Z,99954.84
2022-08-19T16:54:10.902Z,99958.02
2022-08-19T16:56:52.797Z,99958.13
2022-08-19T16:59:35.719Z,99965.75
2022-08-19T17:02:19.360Z,99965.50
2022-08-19T17:05:01.454Z,99964.27
2022-08-19T17:07:43.965Z,99964.69
2022-08-19T17:10:25.963Z,99963.84
2022-08-19T17:13:07.961Z,99963.02
2022-08-19T17:15:50.778Z,99963.45
2022-08-19T17:18:33.522Z,99968.00
2022-08-19T17:21:15.491Z,99969.33
2022-08-19T17:23:59.640Z,99975.21
2022-08-19T17:26:41.842Z,99978.91
2022-08-19T17:29:23.781Z,99983.84
2022-08-19T17:32:07.989Z,99988.55
2022-08-19T17:34:49.885Z,99987.95
2022-08-19T17:37:31.885Z,99995.02
2022-08-19T17:40:15.272Z,99995.85
2022-08-19T17:43:03.151Z,99996.67
2022-08-19T17:45:45.865Z,99997.50
2022-08-19T17:48:27.760Z,99993.92
2022-08-19T17:51:18.227Z,99995.34
2022-08-19T17:54:05.888Z,99998.92
2022-08-19T17:56:48.501Z,100005.30
2022-08-19T17:59:30.509Z,100006.90
2022-08-19T18:02:12.442Z,100009.30
2022-08-19T18:04:54.802Z,100014.90
2022-08-19T18:07:36.804Z,100016.14
2022-08-19T18:10:20.296Z,100013.57
2022-08-19T18:13:02.333Z,100018.38
2022-08-19T18:15:59.897Z,100029.04
2022-08-19T18:18:44.249Z,100034.03
2022-08-19T18:21:31.807Z,100043.27
2022-08-19T18:24:14.185Z,100039.89
2022-08-19T18:26:56.080Z,100049.27
2022-08-19T18:29:38.656Z,100043.20
2022-08-19T18:32:23.861Z,100036.06
2022-08-19T18:35:11.213Z,100035.71
2022-08-19T18:37:53.090Z,100032.86
2022-08-19T18:40:54.130Z,100031.48
2022-08-19T18:43:55.073Z,100027.82
2022-08-19T18:46:57.386Z,100026.08
2022-08-19T18:49:39.752Z,100025.09
2022-08-19T18:52:27.432Z,100024.83
2022-08-19T18:55:09.823Z,100032.73
2022-08-19T18:57:52.114Z,100032.21
2022-08-19T19:00:37.009Z,100037.20
2022-08-19T19:03:18.857Z,100038.08
2022-08-19T19:06:01.673Z,100032.73
2022-08-19T19:08:43.569Z,100030.54
2022-08-19T19:11:32.742Z,100041.58
2022-08-19T19:14:32.720Z,100041.55
2022-08-19T19:17:28.175Z,100051.61
2022-08-19T19:20:10.380Z,100053.37
2022-08-19T19:22:55.308Z,100049.54
2022-08-19T19:25:50.285Z,100046.78
2022-08-19T19:28:33.099Z,100054.41
2022-08-19T19:31:20.160Z,100055.73
2022-08-19T19:34:03.405Z,100057.02
2022-08-19T19:36:45.606Z,100060.88
2022-08-19T19:39:30.638Z,100059.52
2022-08-19T19:42:27.627Z,100062.10
2022-08-19T19:45:10.033Z,100060.88
2022-08-19T19:47:51.954Z,100055.36
2022-08-19T19:50:34.007Z,100060.04
2022-08-19T19:53:15.924Z,100066.77
2022-08-19T19:55:59.533Z,100069.27
2022-08-19T19:58:42.173Z,100069.48
2022-08-19T20:01:27.524Z,100073.92
2022-08-19T20:04:09.446Z,100076.42
2022-08-19T20:06:51.345Z,100075.29
2022-08-19T20:09:56.326Z,100079.21
2022-08-19T20:12:35.511Z,100083.61
2022-08-19T20:15:18.124Z,100085.20
2022-08-19T20:18:00.961Z,100087.59
2022-08-19T20:20:47.583Z,100085.48
2022-08-19T20:23:32.105Z,100089.34
2022-08-19T20:26:26.750Z,100092.83
2022-08-19T20:29:38.034Z,100090.94
2022-08-19T20:32:20.596Z,100098.33
2022-08-19T20:35:02.593Z,100102.36
2022-08-19T20:37:44.797Z,100108.61
2022-08-19T20:40:28.538Z,100113.88
2022-08-19T20:43:13.503Z,100114.09
2022-08-19T20:45:56.422Z,100110.85
2022-08-19T20:48:39.138Z,100114.70
2022-08-19T20:51:21.189Z,100112.79
2022-08-19T20:54:03.282Z,100113.72
2022-08-19T20:56:47.077Z,100112.36
2022-08-19T20:59:29.633Z,100111.82
2022-08-19T21:02:13.155Z,100113.46
2022-08-19T21:04:55.223Z,100109.73
2022-08-19T21:07:42.900Z,100108.25
2022-08-19T21:10:26.710Z,100108.20
2022-08-19T21:13:08.532Z,100101.80
2022-08-19T21:15:51.621Z,100098.60
2022-08-19T21:18:35.664Z,100098.27
2022-08-19T21:21:17.554Z,100104.19
2022-08-19T21:23:59.916Z,100100.77
2022-08-19T21:26:41.959Z,100101.76
2022-08-19T21:29:23.959Z,100117.90
2022-08-19T21:32:06.160Z,100123.60
2022-08-19T21:34:48.009Z,100132.81
2022-08-19T21:37:30.005Z,100141.27
2022-08-19T21:40:12.454Z,100149.61
2022-08-19T21:42:54.664Z,100154.39
2022-08-19T21:45:36.906Z,100142.36
2022-08-19T21:48:19.382Z,100125.17
2022-08-19T21:51:01.278Z,100130.31
2022-08-19T21:53:43.699Z,100137.63
2022-08-19T21:56:25.782Z,100135.89
2022-08-19T21:59:07.881Z,100126.99
2022-08-19T22:01:58.821Z,100120.30
2022-08-19T22:04:48.675Z,100115.52
2022-08-19T22:07:30.670Z,100120.42
2022-08-19T22:10:13.283Z,100113.46
2022-08-19T22:12:56.510Z,100104.07
2022-08-19T22:15:38.404Z,100106.53
2022-08-19T22:18:20.813Z,100108.88
2022-08-19T22:21:06.395Z,100107.50
2022-08-19T22:23:51.467Z,100105.80
2022-08-19T22:26:33.312Z,100099.34
2022-08-19T22:29:17.248Z,100094.09
2022-08-19T22:31:59.404Z,100090.94
2022-08-19T22:34:41.608Z,100088.16
2022-08-19T22:37:23.606Z,100085.77
2022-08-19T22:40:06.309Z,100076.61
2022-08-19T22:42:48.992Z,100086.16
2022-08-19T22:45:31.899Z,100091.72
2022-08-19T22:48:16.373Z,100093.08
2022-08-19T22:51:17.777Z,100084.36
2022-08-19T22:53:59.866Z,100091.70
2022-08-19T22:56:42.579Z,100096.46
2022-08-19T22:59:24.577Z,100105.39
2022-08-19T23:02:07.137Z,100110.02
2022-08-19T23:04:50.108Z,100117.73
2022-08-19T23:07:32.006Z,100114.16
2022-08-19T23:10:14.002Z,100109.11
2022-08-19T23:13:09.723Z,100115.46
2022-08-19T23:15:51.721Z,100119.90
2022-08-19T23:18:34.231Z,100114.31
2022-08-19T23:21:16.786Z,100115.28
2022-08-19T23:23:59.088Z,100121.48
2022-08-19T23:27:03.985Z,100115.98
2022-08-19T23:30:05.540Z,100116.41
2022-08-19T23:32:47.435Z,100121.41
2022-08-19T23:35:34.248Z,100123.52
2022-08-19T23:38:16.346Z,100117.48
2022-08-19T23:41:01.211Z,100115.98
2022-08-19T23:43:44.654Z,100111.55
2022-08-19T23:46:27.945Z,100119.65
2022-08-19T23:49:10.484Z,100125.56
2022-08-19T23:51:53.631Z,100134.79
2022-08-19T23:54:43.467Z,100142.71
2022-08-19T23:57:25.899Z,100146.59
